Huvudsida
METAR-TAF:

METAR-TAF

Flygplatser :

Dublin, Irland

Dublin Airport

latitud: 53-26N, longitud: 006-15W, höjd: 68 m

Aktuellt väderrapport

Denna rapport gjordes för 22 minuter sedan, klockan 04:30 UTC
Vind 14 kt från sydost
Temperatur 3°C
Fuktighet 70%
Tryck 1019 hPa
Sikt 10 km eller mer
Få moln på en höjd av 1200 ft
Brutna moln på en höjd av 3000 ft

METAR: EIDW 230430Z 14014KT 9999 FEW012 BKN030 03/M02 Q1019 NOSIG

Tid: 04:52 (04:52 UTC)

Väderprognos

Denna rapport gjordes för 5 timmar och 52 minuter sedan, klockan 23:00 UTC
Prognos gäller från 23 kl. 00 UTC till 23 kl. 24 UTC
Vind 10 kt från syd/sydost
Sikt 10 km eller mer
Få moln på en höjd av 2000 ft
Spridda moln på en höjd av 3500 ft
Blir
från 23 kl. 09 UTC till 23 kl. 12 UTC
Vind 15 kt från syd/sydost
Temporärt
från 23 kl. 12 UTC till 23 kl. 18 UTC
Vind 16 kt från syd/sydost i byarna ända upp till 27 kt

TAF: EIDW 222300Z 2300/2324 16010KT 9999 FEW020 SCT035 BECMG 2309/2312 16015KT TEMPO 2312/2318 15016G27KT

Aktuella väderrapporter och prognoser från 4000 flygplatser (METAR- och TAF-rapporter).

De tillgängliga stationerna syns som gula och röda prickar på kartan.

För musen över prickarna för att se namnen på stationerna.

Klicka sedan för att få väderrapporter och prognoser.

För att ändra kartan: Klicka på de gröna knapparna med ett svart kors på för att zooma in; den gröna knappen med ett streck på för att zooma ut; eller på de gröna pilarna för angränsande kartor.


METAR-TAF: